sensor_id;sensor_type;location;lat;lon;timestamp;P1;durP1;ratioP1;P2;durP2;ratioP2
22449;SDS011;11392;57.390;-2.468;2023-07-24T00:00:33;3.42;;;1.60;;
22449;SDS011;11392;57.390;-2.468;2023-07-24T00:03:02;5.75;;;1.80;;
22449;SDS011;11392;57.390;-2.468;2023-07-24T00:05:29;5.90;;;1.60;;
22449;SDS011;11392;57.390;-2.468;2023-07-24T00:07:56;1.77;;;1.42;;
22449;SDS011;11392;57.390;-2.468;2023-07-24T00:10:23;4.07;;;2.28;;
22449;SDS011;11392;57.390;-2.468;2023-07-24T00:12:50;2.70;;;1.25;;
22449;SDS011;11392;57.390;-2.468;2023-07-24T00:15:18;1.48;;;1.02;;
22449;SDS011;11392;57.390;-2.468;2023-07-24T00:17:45;3.30;;;1.20;;
22449;SDS011;11392;57.390;-2.468;2023-07-24T00:20:12;2.42;;;1.38;;
22449;SDS011;11392;57.390;-2.468;2023-07-24T00:22:39;4.57;;;1.30;;
22449;SDS011;11392;57.390;-2.468;2023-07-24T00:25:06;3.63;;;1.05;;
22449;SDS011;11392;57.390;-2.468;2023-07-24T00:27:35;2.08;;;1.45;;
22449;SDS011;11392;57.390;-2.468;2023-07-24T00:30:02;3.90;;;1.33;;
22449;SDS011;11392;57.390;-2.468;2023-07-24T00:32:29;3.58;;;1.30;;
22449;SDS011;11392;57.390;-2.468;2023-07-24T00:34:57;2.55;;;1.50;;
22449;SDS011;11392;57.390;-2.468;2023-07-24T00:37:24;3.78;;;1.20;;
22449;SDS011;11392;57.390;-2.468;2023-07-24T00:39:51;2.97;;;1.38;;
22449;SDS011;11392;57.390;-2.468;2023-07-24T00:42:18;1.63;;;1.00;;
22449;SDS011;11392;57.390;-2.468;2023-07-24T00:44:45;2.60;;;1.30;;
22449;SDS011;11392;57.390;-2.468;2023-07-24T00:47:12;3.63;;;1.45;;
22449;SDS011;11392;57.390;-2.468;2023-07-24T00:49:39;2.88;;;1.20;;
22449;SDS011;11392;57.390;-2.468;2023-07-24T00:52:06;4.10;;;1.58;;
22449;SDS011;11392;57.390;-2.468;2023-07-24T00:54:34;2.15;;;1.52;;
22449;SDS011;11392;57.390;-2.468;2023-07-24T00:57:02;3.85;;;1.63;;
22449;SDS011;11392;57.390;-2.468;2023-07-24T00:59:30;2.85;;;1.30;;
22449;SDS011;11392;57.390;-2.468;2023-07-24T01:01:58;3.90;;;2.03;;
22449;SDS011;11392;57.390;-2.468;2023-07-24T01:04:25;2.80;;;1.40;;
22449;SDS011;11392;57.390;-2.468;2023-07-24T01:06:52;4.28;;;1.65;;
22449;SDS011;11392;57.390;-2.468;2023-07-24T01:09:19;3.75;;;1.85;;
22449;SDS011;11392;57.390;-2.468;2023-07-24T01:11:47;5.55;;;1.40;;
22449;SDS011;11392;57.390;-2.468;2023-07-24T01:14:22;2.72;;;1.40;;
22449;SDS011;11392;57.390;-2.468;2023-07-24T01:16:53;3.83;;;1.30;;
22449;SDS011;11392;57.390;-2.468;2023-07-24T01:19:42;6.63;;;1.52;;
22449;SDS011;11392;57.390;-2.468;2023-07-24T01:22:18;5.93;;;2.05;;
22449;SDS011;11392;57.390;-2.468;2023-07-24T01:27:49;3.83;;;1.60;;
22449;SDS011;11392;57.390;-2.468;2023-07-24T01:30:17;2.65;;;1.40;;
22449;SDS011;11392;57.390;-2.468;2023-07-24T01:32:45;4.22;;;1.98;;
22449;SDS011;11392;57.390;-2.468;2023-07-24T01:35:12;3.40;;;1.40;;
22449;SDS011;11392;57.390;-2.468;2023-07-24T01:37:40;4.63;;;1.58;;
22449;SDS011;11392;57.390;-2.468;2023-07-24T01:40:10;2.95;;;1.75;;
22449;SDS011;11392;57.390;-2.468;2023-07-24T01:42:38;3.20;;;2.00;;
22449;SDS011;11392;57.390;-2.468;2023-07-24T01:45:06;5.78;;;2.40;;
22449;SDS011;11392;57.390;-2.468;2023-07-24T01:47:33;2.08;;;1.20;;
22449;SDS011;11392;57.390;-2.468;2023-07-24T01:50:00;1.65;;;1.10;;
22449;SDS011;11392;57.390;-2.468;2023-07-24T01:52:27;3.08;;;1.20;;
22449;SDS011;11392;57.390;-2.468;2023-07-24T01:54:54;1.30;;;1.20;;
22449;SDS011;11392;57.390;-2.468;2023-07-24T01:57:21;2.95;;;1.17;;
22449;SDS011;11392;57.390;-2.468;2023-07-24T01:59:48;2.03;;;0.98;;
22449;SDS011;11392;57.390;-2.468;2023-07-24T02:02:15;2.65;;;1.70;;
22449;SDS011;11392;57.390;-2.468;2023-07-24T02:04:42;2.50;;;1.25;;
22449;SDS011;11392;57.390;-2.468;2023-07-24T02:07:09;2.55;;;1.65;;
22449;SDS011;11392;57.390;-2.468;2023-07-24T02:09:36;2.08;;;1.20;;
22449;SDS011;11392;57.390;-2.468;2023-07-24T02:12:03;1.30;;;1.17;;
22449;SDS011;11392;57.390;-2.468;2023-07-24T02:14:31;0.75;;;0.75;;
22449;SDS011;11392;57.390;-2.468;2023-07-24T02:16:58;1.77;;;0.95;;
22449;SDS011;11392;57.390;-2.468;2023-07-24T02:19:25;2.17;;;1.13;;
22449;SDS011;11392;57.390;-2.468;2023-07-24T02:21:52;2.08;;;0.82;;
22449;SDS011;11392;57.390;-2.468;2023-07-24T02:24:19;1.75;;;0.98;;
22449;SDS011;11392;57.390;-2.468;2023-07-24T02:26:46;1.90;;;1.00;;
22449;SDS011;11392;57.390;-2.468;2023-07-24T02:29:13;2.38;;;1.10;;
22449;SDS011;11392;57.390;-2.468;2023-07-24T02:31:40;1.38;;;1.02;;
22449;SDS011;11392;57.390;-2.468;2023-07-24T02:34:07;0.98;;;0.90;;
22449;SDS011;11392;57.390;-2.468;2023-07-24T02:36:34;2.03;;;1.00;;
22449;SDS011;11392;57.390;-2.468;2023-07-24T02:39:01;3.95;;;1.10;;
22449;SDS011;11392;57.390;-2.468;2023-07-24T02:41:28;1.55;;;0.90;;
22449;SDS011;11392;57.390;-2.468;2023-07-24T02:43:56;1.00;;;0.90;;
22449;SDS011;11392;57.390;-2.468;2023-07-24T02:46:24;1.77;;;1.15;;
22449;SDS011;11392;57.390;-2.468;2023-07-24T02:48:51;1.52;;;1.15;;
22449;SDS011;11392;57.390;-2.468;2023-07-24T02:51:20;2.20;;;1.10;;
22449;SDS011;11392;57.390;-2.468;2023-07-24T02:53:47;1.63;;;1.00;;
22449;SDS011;11392;57.390;-2.468;2023-07-24T02:56:17;4.13;;;1.58;;
22449;SDS011;11392;57.390;-2.468;2023-07-24T02:58:44;3.45;;;0.98;;
22449;SDS011;11392;57.390;-2.468;2023-07-24T03:01:11;1.75;;;1.33;;
22449;SDS011;11392;57.390;-2.468;2023-07-24T03:03:40;1.95;;;0.88;;
22449;SDS011;11392;57.390;-2.468;2023-07-24T03:06:08;1.85;;;1.35;;
22449;SDS011;11392;57.390;-2.468;2023-07-24T03:08:35;1.00;;;0.90;;
22449;SDS011;11392;57.390;-2.468;2023-07-24T03:11:04;1.33;;;1.00;;
22449;SDS011;11392;57.390;-2.468;2023-07-24T03:13:31;2.08;;;0.75;;
22449;SDS011;11392;57.390;-2.468;2023-07-24T03:15:58;2.88;;;1.10;;
22449;SDS011;11392;57.390;-2.468;2023-07-24T03:18:25;3.13;;;0.93;;
22449;SDS011;11392;57.390;-2.468;2023-07-24T03:20:52;0.95;;;0.82;;
22449;SDS011;11392;57.390;-2.468;2023-07-24T03:23:19;1.67;;;1.20;;
22449;SDS011;11392;57.390;-2.468;2023-07-24T03:25:46;1.65;;;0.90;;
22449;SDS011;11392;57.390;-2.468;2023-07-24T03:28:13;1.75;;;0.98;;
22449;SDS011;11392;57.390;-2.468;2023-07-24T03:30:40;1.20;;;0.90;;
22449;SDS011;11392;57.390;-2.468;2023-07-24T03:33:07;1.20;;;0.90;;
22449;SDS011;11392;57.390;-2.468;2023-07-24T03:35:34;1.40;;;1.02;;
22449;SDS011;11392;57.390;-2.468;2023-07-24T03:38:01;1.73;;;1.13;;
22449;SDS011;11392;57.390;-2.468;2023-07-24T03:40:28;1.20;;;1.00;;
22449;SDS011;11392;57.390;-2.468;2023-07-24T03:42:55;2.28;;;1.00;;
22449;SDS011;11392;57.390;-2.468;2023-07-24T03:45:22;5.57;;;1.02;;
22449;SDS011;11392;57.390;-2.468;2023-07-24T03:47:49;2.92;;;0.95;;
22449;SDS011;11392;57.390;-2.468;2023-07-24T03:50:16;1.02;;;0.90;;
22449;SDS011;11392;57.390;-2.468;2023-07-24T03:52:43;1.63;;;0.90;;
22449;SDS011;11392;57.390;-2.468;2023-07-24T03:55:10;3.20;;;1.42;;
22449;SDS011;11392;57.390;-2.468;2023-07-24T03:57:37;1.52;;;1.10;;
22449;SDS011;11392;57.390;-2.468;2023-07-24T04:00:04;2.28;;;1.02;;
22449;SDS011;11392;57.390;-2.468;2023-07-24T04:02:32;1.45;;;0.90;;
22449;SDS011;11392;57.390;-2.468;2023-07-24T04:04:59;1.33;;;0.90;;
22449;SDS011;11392;57.390;-2.468;2023-07-24T04:07:26;1.65;;;0.93;;
22449;SDS011;11392;57.390;-2.468;2023-07-24T04:09:53;2.28;;;0.98;;
22449;SDS011;11392;57.390;-2.468;2023-07-24T04:12:20;2.17;;;0.95;;
22449;SDS011;11392;57.390;-2.468;2023-07-24T04:14:47;2.00;;;1.02;;
22449;SDS011;11392;57.390;-2.468;2023-07-24T04:17:15;1.52;;;0.90;;
22449;SDS011;11392;57.390;-2.468;2023-07-24T04:19:42;1.73;;;0.77;;
22449;SDS011;11392;57.390;-2.468;2023-07-24T04:22:09;2.13;;;1.17;;
22449;SDS011;11392;57.390;-2.468;2023-07-24T04:24:36;1.00;;;0.85;;
22449;SDS011;11392;57.390;-2.468;2023-07-24T04:27:03;2.10;;;0.93;;
22449;SDS011;11392;57.390;-2.468;2023-07-24T04:29:30;1.92;;;0.90;;
22449;SDS011;11392;57.390;-2.468;2023-07-24T04:31:57;0.95;;;0.80;;
22449;SDS011;11392;57.390;-2.468;2023-07-24T04:34:24;0.75;;;0.75;;
22449;SDS011;11392;57.390;-2.468;2023-07-24T04:36:51;1.67;;;0.90;;
22449;SDS011;11392;57.390;-2.468;2023-07-24T04:39:18;1.13;;;1.02;;
22449;SDS011;11392;57.390;-2.468;2023-07-24T04:41:45;5.25;;;1.20;;
22449;SDS011;11392;57.390;-2.468;2023-07-24T04:44:12;2.25;;;1.00;;
22449;SDS011;11392;57.390;-2.468;2023-07-24T04:46:39;1.33;;;1.23;;
22449;SDS011;11392;57.390;-2.468;2023-07-24T04:49:06;1.48;;;0.85;;
22449;SDS011;11392;57.390;-2.468;2023-07-24T04:51:33;0.82;;;0.70;;
22449;SDS011;11392;57.390;-2.468;2023-07-24T04:54:02;3.72;;;1.10;;
22449;SDS011;11392;57.390;-2.468;2023-07-24T04:56:29;1.13;;;0.80;;
22449;SDS011;11392;57.390;-2.468;2023-07-24T04:58:56;3.00;;;0.98;;
22449;SDS011;11392;57.390;-2.468;2023-07-24T05:01:23;1.80;;;0.90;;
22449;SDS011;11392;57.390;-2.468;2023-07-24T05:03:50;1.70;;;0.80;;
22449;SDS011;11392;57.390;-2.468;2023-07-24T05:06:18;2.17;;;1.00;;
22449;SDS011;11392;57.390;-2.468;2023-07-24T05:08:45;1.17;;;0.90;;
22449;SDS011;11392;57.390;-2.468;2023-07-24T05:11:11;2.72;;;1.05;;
22449;SDS011;11392;57.390;-2.468;2023-07-24T05:13:39;1.55;;;0.90;;
22449;SDS011;11392;57.390;-2.468;2023-07-24T05:16:06;1.83;;;1.00;;
22449;SDS011;11392;57.390;-2.468;2023-07-24T05:18:32;2.50;;;0.80;;
22449;SDS011;11392;57.390;-2.468;2023-07-24T05:20:59;1.02;;;0.90;;
22449;SDS011;11392;57.390;-2.468;2023-07-24T05:23:26;1.33;;;0.80;;
22449;SDS011;11392;57.390;-2.468;2023-07-24T05:26:00;1.48;;;1.00;;
22449;SDS011;11392;57.390;-2.468;2023-07-24T05:28:30;1.33;;;0.70;;
22449;SDS011;11392;57.390;-2.468;2023-07-24T05:31:01;0.80;;;0.80;;
22449;SDS011;11392;57.390;-2.468;2023-07-24T05:33:29;2.92;;;1.10;;
22449;SDS011;11392;57.390;-2.468;2023-07-24T05:36:00;3.90;;;1.05;;
22449;SDS011;11392;57.390;-2.468;2023-07-24T05:38:28;1.98;;;0.93;;
22449;SDS011;11392;57.390;-2.468;2023-07-24T05:40:56;3.95;;;1.23;;
22449;SDS011;11392;57.390;-2.468;2023-07-24T05:43:28;2.40;;;0.90;;
22449;SDS011;11392;57.390;-2.468;2023-07-24T05:45:56;2.15;;;0.80;;
22449;SDS011;11392;57.390;-2.468;2023-07-24T05:48:24;1.00;;;0.90;;
22449;SDS011;11392;57.390;-2.468;2023-07-24T05:50:51;1.30;;;1.20;;
22449;SDS011;11392;57.390;-2.468;2023-07-24T05:53:19;1.10;;;1.00;;
22449;SDS011;11392;57.390;-2.468;2023-07-24T05:55:46;1.70;;;1.10;;
22449;SDS011;11392;57.390;-2.468;2023-07-24T05:58:13;1.17;;;0.95;;
22449;SDS011;11392;57.390;-2.468;2023-07-24T06:00:41;1.50;;;0.60;;
22449;SDS011;11392;57.390;-2.468;2023-07-24T06:03:08;1.35;;;0.80;;
22449;SDS011;11392;57.390;-2.468;2023-07-24T06:05:35;0.95;;;0.90;;
22449;SDS011;11392;57.390;-2.468;2023-07-24T06:08:02;2.30;;;0.90;;
22449;SDS011;11392;57.390;-2.468;2023-07-24T06:10:29;0.73;;;0.50;;
22449;SDS011;11392;57.390;-2.468;2023-07-24T06:12:56;1.73;;;0.60;;
22449;SDS011;11392;57.390;-2.468;2023-07-24T06:15:23;1.33;;;0.60;;
22449;SDS011;11392;57.390;-2.468;2023-07-24T06:17:50;0.57;;;0.57;;
22449;SDS011;11392;57.390;-2.468;2023-07-24T06:20:20;0.70;;;0.70;;
22449;SDS011;11392;57.390;-2.468;2023-07-24T06:22:47;1.00;;;0.65;;
22449;SDS011;11392;57.390;-2.468;2023-07-24T06:25:14;0.95;;;0.68;;
22449;SDS011;11392;57.390;-2.468;2023-07-24T06:27:41;1.70;;;0.80;;
22449;SDS011;11392;57.390;-2.468;2023-07-24T06:30:08;3.78;;;0.73;;
22449;SDS011;11392;57.390;-2.468;2023-07-24T06:32:41;1.73;;;0.50;;
22449;SDS011;11392;57.390;-2.468;2023-07-24T06:35:09;0.60;;;0.50;;
22449;SDS011;11392;57.390;-2.468;2023-07-24T06:37:36;0.60;;;0.30;;
22449;SDS011;11392;57.390;-2.468;2023-07-24T06:40:03;2.50;;;0.75;;
22449;SDS011;11392;57.390;-2.468;2023-07-24T06:42:32;1.13;;;0.50;;
22449;SDS011;11392;57.390;-2.468;2023-07-24T06:44:59;2.03;;;0.50;;
22449;SDS011;11392;57.390;-2.468;2023-07-24T06:47:26;1.25;;;0.63;;
22449;SDS011;11392;57.390;-2.468;2023-07-24T06:49:53;0.80;;;0.45;;
22449;SDS011;11392;57.390;-2.468;2023-07-24T06:52:20;1.73;;;0.43;;
22449;SDS011;11392;57.390;-2.468;2023-07-24T06:54:47;1.38;;;0.43;;
22449;SDS011;11392;57.390;-2.468;2023-07-24T06:57:14;0.40;;;0.40;;
22449;SDS011;11392;57.390;-2.468;2023-07-24T06:59:41;1.73;;;0.50;;
22449;SDS011;11392;57.390;-2.468;2023-07-24T07:02:08;0.75;;;0.35;;
22449;SDS011;11392;57.390;-2.468;2023-07-24T07:04:35;3.30;;;0.43;;
22449;SDS011;11392;57.390;-2.468;2023-07-24T07:07:02;0.60;;;0.47;;
22449;SDS011;11392;57.390;-2.468;2023-07-24T07:09:29;0.82;;;0.50;;
22449;SDS011;11392;57.390;-2.468;2023-07-24T07:11:57;0.30;;;0.20;;
22449;SDS011;11392;57.390;-2.468;2023-07-24T07:14:24;0.70;;;0.43;;
22449;SDS011;11392;57.390;-2.468;2023-07-24T07:16:51;0.55;;;0.40;;
22449;SDS011;11392;57.390;-2.468;2023-07-24T07:19:18;1.55;;;0.50;;
22449;SDS011;11392;57.390;-2.468;2023-07-24T07:21:45;0.65;;;0.60;;
22449;SDS011;11392;57.390;-2.468;2023-07-24T07:24:12;0.98;;;0.40;;
22449;SDS011;11392;57.390;-2.468;2023-07-24T07:26:39;0.40;;;0.40;;
22449;SDS011;11392;57.390;-2.468;2023-07-24T07:29:06;0.55;;;0.38;;
22449;SDS011;11392;57.390;-2.468;2023-07-24T07:31:33;0.50;;;0.50;;
22449;SDS011;11392;57.390;-2.468;2023-07-24T07:34:00;0.50;;;0.50;;
22449;SDS011;11392;57.390;-2.468;2023-07-24T07:36:27;0.55;;;0.40;;
22449;SDS011;11392;57.390;-2.468;2023-07-24T07:38:54;1.85;;;0.35;;
22449;SDS011;11392;57.390;-2.468;2023-07-24T07:41:21;1.75;;;0.40;;
22449;SDS011;11392;57.390;-2.468;2023-07-24T07:43:48;0.50;;;0.30;;
22449;SDS011;11392;57.390;-2.468;2023-07-24T07:46:15;0.45;;;0.40;;
22449;SDS011;11392;57.390;-2.468;2023-07-24T07:48:42;1.75;;;0.45;;
22449;SDS011;11392;57.390;-2.468;2023-07-24T07:51:09;0.38;;;0.38;;
22449;SDS011;11392;57.390;-2.468;2023-07-24T07:53:36;0.47;;;0.47;;
22449;SDS011;11392;57.390;-2.468;2023-07-24T07:56:03;1.27;;;0.45;;
22449;SDS011;11392;57.390;-2.468;2023-07-24T07:58:30;1.75;;;0.40;;
22449;SDS011;11392;57.390;-2.468;2023-07-24T08:00:57;0.85;;;0.60;;
22449;SDS011;11392;57.390;-2.468;2023-07-24T08:03:24;1.55;;;0.60;;
22449;SDS011;11392;57.390;-2.468;2023-07-24T08:05:51;1.98;;;0.40;;
22449;SDS011;11392;57.390;-2.468;2023-07-24T08:08:22;0.88;;;0.60;;
22449;SDS011;11392;57.390;-2.468;2023-07-24T08:10:49;0.73;;;0.40;;
22449;SDS011;11392;57.390;-2.468;2023-07-24T08:13:16;2.28;;;0.50;;
22449;SDS011;11392;57.390;-2.468;2023-07-24T08:15:44;1.73;;;0.80;;
22449;SDS011;11392;57.390;-2.468;2023-07-24T08:18:11;0.50;;;0.43;;
22449;SDS011;11392;57.390;-2.468;2023-07-24T08:20:38;0.40;;;0.40;;
22449;SDS011;11392;57.390;-2.468;2023-07-24T08:23:06;1.75;;;0.47;;
22449;SDS011;11392;57.390;-2.468;2023-07-24T08:25:33;0.70;;;0.63;;
22449;SDS011;11392;57.390;-2.468;2023-07-24T08:28:00;1.55;;;0.40;;
22449;SDS011;11392;57.390;-2.468;2023-07-24T08:30:32;0.52;;;0.32;;
22449;SDS011;11392;57.390;-2.468;2023-07-24T08:33:00;0.30;;;0.30;;
22449;SDS011;11392;57.390;-2.468;2023-07-24T08:35:27;0.38;;;0.32;;
22449;SDS011;11392;57.390;-2.468;2023-07-24T08:37:54;1.17;;;0.40;;
22449;SDS011;11392;57.390;-2.468;2023-07-24T08:40:21;0.30;;;0.30;;
22449;SDS011;11392;57.390;-2.468;2023-07-24T08:42:51;1.08;;;0.57;;
22449;SDS011;11392;57.390;-2.468;2023-07-24T08:45:18;1.25;;;0.50;;
22449;SDS011;11392;57.390;-2.468;2023-07-24T08:47:47;1.35;;;0.70;;
22449;SDS011;11392;57.390;-2.468;2023-07-24T08:50:16;1.33;;;0.50;;
22449;SDS011;11392;57.390;-2.468;2023-07-24T08:52:44;0.50;;;0.50;;
22449;SDS011;11392;57.390;-2.468;2023-07-24T08:55:13;0.43;;;0.35;;
22449;SDS011;11392;57.390;-2.468;2023-07-24T08:57:40;0.73;;;0.50;;
22449;SDS011;11392;57.390;-2.468;2023-07-24T09:00:07;1.20;;;0.40;;
22449;SDS011;11392;57.390;-2.468;2023-07-24T09:02:35;0.70;;;0.40;;
22449;SDS011;11392;57.390;-2.468;2023-07-24T09:05:02;2.67;;;0.35;;
22449;SDS011;11392;57.390;-2.468;2023-07-24T09:07:31;3.55;;;0.60;;
22449;SDS011;11392;57.390;-2.468;2023-07-24T09:09:58;0.93;;;0.50;;
22449;SDS011;11392;57.390;-2.468;2023-07-24T09:12:25;0.30;;;0.30;;
22449;SDS011;11392;57.390;-2.468;2023-07-24T09:15:04;1.15;;;0.60;;
22449;SDS011;11392;57.390;-2.468;2023-07-24T09:17:33;1.75;;;0.57;;
22449;SDS011;11392;57.390;-2.468;2023-07-24T09:20:01;0.93;;;0.60;;
22449;SDS011;11392;57.390;-2.468;2023-07-24T09:22:30;0.55;;;0.45;;
22449;SDS011;11392;57.390;-2.468;2023-07-24T09:24:59;0.43;;;0.30;;
22449;SDS011;11392;57.390;-2.468;2023-07-24T09:27:29;0.80;;;0.47;;
22449;SDS011;11392;57.390;-2.468;2023-07-24T09:29:58;1.98;;;0.50;;
22449;SDS011;11392;57.390;-2.468;2023-07-24T09:32:26;0.30;;;0.30;;
22449;SDS011;11392;57.390;-2.468;2023-07-24T09:34:54;0.30;;;0.30;;
22449;SDS011;11392;57.390;-2.468;2023-07-24T09:37:27;2.38;;;0.52;;
22449;SDS011;11392;57.390;-2.468;2023-07-24T09:39:59;0.30;;;0.30;;
22449;SDS011;11392;57.390;-2.468;2023-07-24T09:42:33;2.25;;;0.30;;
22449;SDS011;11392;57.390;-2.468;2023-07-24T09:45:18;3.17;;;0.40;;
22449;SDS011;11392;57.390;-2.468;2023-07-24T09:47:49;0.73;;;0.30;;
22449;SDS011;11392;57.390;-2.468;2023-07-24T09:50:24;0.82;;;0.20;;
22449;SDS011;11392;57.390;-2.468;2023-07-24T09:52:51;0.57;;;0.30;;
22449;SDS011;11392;57.390;-2.468;2023-07-24T09:55:21;0.30;;;0.30;;
22449;SDS011;11392;57.390;-2.468;2023-07-24T09:57:55;0.73;;;0.30;;
22449;SDS011;11392;57.390;-2.468;2023-07-24T10:00:25;0.95;;;0.25;;
22449;SDS011;11392;57.390;-2.468;2023-07-24T10:02:53;0.20;;;0.20;;
22449;SDS011;11392;57.390;-2.468;2023-07-24T10:05:21;0.95;;;0.40;;
22449;SDS011;11392;57.390;-2.468;2023-07-24T10:07:48;0.45;;;0.30;;
22449;SDS011;11392;57.390;-2.468;2023-07-24T10:10:16;0.75;;;0.25;;
22449;SDS011;11392;57.390;-2.468;2023-07-24T10:12:43;0.57;;;0.38;;
22449;SDS011;11392;57.390;-2.468;2023-07-24T10:15:11;0.88;;;0.30;;
22449;SDS011;11392;57.390;-2.468;2023-07-24T10:17:39;0.20;;;0.20;;
22449;SDS011;11392;57.390;-2.468;2023-07-24T10:20:09;1.02;;;0.32;;
22449;SDS011;11392;57.390;-2.468;2023-07-24T10:22:40;0.45;;;0.20;;
22449;SDS011;11392;57.390;-2.468;2023-07-24T10:25:08;0.73;;;0.20;;
22449;SDS011;11392;57.390;-2.468;2023-07-24T10:27:42;0.47;;;0.38;;
22449;SDS011;11392;57.390;-2.468;2023-07-24T10:30:14;0.65;;;0.17;;
22449;SDS011;11392;57.390;-2.468;2023-07-24T10:33:10;0.30;;;0.20;;
22449;SDS011;11392;57.390;-2.468;2023-07-24T10:35:46;1.08;;;0.20;;
22449;SDS011;11392;57.390;-2.468;2023-07-24T10:38:18;0.30;;;0.20;;
22449;SDS011;11392;57.390;-2.468;2023-07-24T10:40:46;0.75;;;0.17;;
22449;SDS011;11392;57.390;-2.468;2023-07-24T10:43:20;1.25;;;0.38;;
22449;SDS011;11392;57.390;-2.468;2023-07-24T10:45:49;0.45;;;0.30;;
22449;SDS011;11392;57.390;-2.468;2023-07-24T10:48:18;0.43;;;0.30;;
22449;SDS011;11392;57.390;-2.468;2023-07-24T10:50:47;0.75;;;0.32;;
22449;SDS011;11392;57.390;-2.468;2023-07-24T10:53:19;1.25;;;0.30;;
22449;SDS011;11392;57.390;-2.468;2023-07-24T10:55:48;0.40;;;0.40;;
22449;SDS011;11392;57.390;-2.468;2023-07-24T10:58:17;0.57;;;0.20;;
22449;SDS011;11392;57.390;-2.468;2023-07-24T11:00:44;1.15;;;0.35;;
22449;SDS011;11392;57.390;-2.468;2023-07-24T11:03:14;2.88;;;0.80;;
22449;SDS011;11392;57.390;-2.468;2023-07-24T11:05:42;1.75;;;1.08;;
22449;SDS011;11392;57.390;-2.468;2023-07-24T11:08:13;0.57;;;0.55;;
22449;SDS011;11392;57.390;-2.468;2023-07-24T11:10:48;0.82;;;0.52;;
22449;SDS011;11392;57.390;-2.468;2023-07-24T11:13:26;0.50;;;0.32;;
22449;SDS011;11392;57.390;-2.468;2023-07-24T11:15:54;1.08;;;0.50;;
22449;SDS011;11392;57.390;-2.468;2023-07-24T11:18:22;1.23;;;0.50;;
22449;SDS011;11392;57.390;-2.468;2023-07-24T11:20:57;0.35;;;0.35;;
22449;SDS011;11392;57.390;-2.468;2023-07-24T11:23:24;1.08;;;0.30;;
22449;SDS011;11392;57.390;-2.468;2023-07-24T11:25:51;0.98;;;0.45;;
22449;SDS011;11392;57.390;-2.468;2023-07-24T11:28:22;0.52;;;0.40;;
22449;SDS011;11392;57.390;-2.468;2023-07-24T11:30:49;0.98;;;0.50;;
22449;SDS011;11392;57.390;-2.468;2023-07-24T11:33:18;0.43;;;0.30;;
22449;SDS011;11392;57.390;-2.468;2023-07-24T11:35:45;1.90;;;0.50;;
22449;SDS011;11392;57.390;-2.468;2023-07-24T11:38:13;0.65;;;0.45;;
22449;SDS011;11392;57.390;-2.468;2023-07-24T11:40:41;0.63;;;0.50;;
22449;SDS011;11392;57.390;-2.468;2023-07-24T11:43:17;1.85;;;0.57;;
22449;SDS011;11392;57.390;-2.468;2023-07-24T11:45:49;0.73;;;0.35;;
22449;SDS011;11392;57.390;-2.468;2023-07-24T11:48:19;1.00;;;0.50;;
22449;SDS011;11392;57.390;-2.468;2023-07-24T11:50:47;1.85;;;0.50;;
22449;SDS011;11392;57.390;-2.468;2023-07-24T11:53:20;1.40;;;0.40;;
22449;SDS011;11392;57.390;-2.468;2023-07-24T11:55:52;1.35;;;0.40;;
22449;SDS011;11392;57.390;-2.468;2023-07-24T11:58:20;2.63;;;0.52;;
22449;SDS011;11392;57.390;-2.468;2023-07-24T12:00:48;1.88;;;0.40;;
22449;SDS011;11392;57.390;-2.468;2023-07-24T12:03:21;1.30;;;0.52;;
22449;SDS011;11392;57.390;-2.468;2023-07-24T12:05:51;0.73;;;0.40;;
22449;SDS011;11392;57.390;-2.468;2023-07-24T12:08:19;0.80;;;0.40;;
22449;SDS011;11392;57.390;-2.468;2023-07-24T12:10:50;0.52;;;0.40;;
22449;SDS011;11392;57.390;-2.468;2023-07-24T12:13:17;0.45;;;0.30;;
22449;SDS011;11392;57.390;-2.468;2023-07-24T12:15:47;0.32;;;0.32;;
22449;SDS011;11392;57.390;-2.468;2023-07-24T12:18:14;1.15;;;0.40;;
22449;SDS011;11392;57.390;-2.468;2023-07-24T12:20:41;1.50;;;0.40;;
22449;SDS011;11392;57.390;-2.468;2023-07-24T12:23:08;0.70;;;0.32;;
22449;SDS011;11392;57.390;-2.468;2023-07-24T12:25:36;0.30;;;0.30;;
22449;SDS011;11392;57.390;-2.468;2023-07-24T12:28:03;0.32;;;0.30;;
22449;SDS011;11392;57.390;-2.468;2023-07-24T12:30:30;1.45;;;0.40;;
22449;SDS011;11392;57.390;-2.468;2023-07-24T12:32:57;0.90;;;0.47;;
22449;SDS011;11392;57.390;-2.468;2023-07-24T12:35:24;0.65;;;0.40;;
22449;SDS011;11392;57.390;-2.468;2023-07-24T12:37:51;0.60;;;0.30;;
22449;SDS011;11392;57.390;-2.468;2023-07-24T12:40:18;0.98;;;0.30;;
22449;SDS011;11392;57.390;-2.468;2023-07-24T12:42:45;0.52;;;0.40;;
22449;SDS011;11392;57.390;-2.468;2023-07-24T12:45:12;0.60;;;0.32;;
22449;SDS011;11392;57.390;-2.468;2023-07-24T12:47:39;0.45;;;0.30;;
22449;SDS011;11392;57.390;-2.468;2023-07-24T12:50:06;0.40;;;0.40;;
22449;SDS011;11392;57.390;-2.468;2023-07-24T12:52:34;0.60;;;0.40;;
22449;SDS011;11392;57.390;-2.468;2023-07-24T12:55:00;0.70;;;0.40;;
22449;SDS011;11392;57.390;-2.468;2023-07-24T12:57:28;0.32;;;0.22;;
22449;SDS011;11392;57.390;-2.468;2023-07-24T12:59:56;1.20;;;0.45;;
22449;SDS011;11392;57.390;-2.468;2023-07-24T13:02:23;0.68;;;0.35;;
22449;SDS011;11392;57.390;-2.468;2023-07-24T13:04:50;0.38;;;0.20;;
22449;SDS011;11392;57.390;-2.468;2023-07-24T13:07:17;1.50;;;0.40;;
22449;SDS011;11392;57.390;-2.468;2023-07-24T13:09:44;1.17;;;0.47;;
22449;SDS011;11392;57.390;-2.468;2023-07-24T13:12:11;0.88;;;0.50;;
22449;SDS011;11392;57.390;-2.468;2023-07-24T13:14:38;1.00;;;0.40;;
22449;SDS011;11392;57.390;-2.468;2023-07-24T13:17:08;0.90;;;0.55;;
22449;SDS011;11392;57.390;-2.468;2023-07-24T13:19:36;3.17;;;0.65;;
22449;SDS011;11392;57.390;-2.468;2023-07-24T13:22:03;0.85;;;0.50;;
22449;SDS011;11392;57.390;-2.468;2023-07-24T13:24:30;0.57;;;0.45;;
22449;SDS011;11392;57.390;-2.468;2023-07-24T13:26:57;0.63;;;0.40;;
22449;SDS011;11392;57.390;-2.468;2023-07-24T13:29:24;1.67;;;0.70;;
22449;SDS011;11392;57.390;-2.468;2023-07-24T13:31:52;0.65;;;0.40;;
22449;SDS011;11392;57.390;-2.468;2023-07-24T13:34:19;0.73;;;0.38;;
22449;SDS011;11392;57.390;-2.468;2023-07-24T13:36:47;0.80;;;0.45;;
22449;SDS011;11392;57.390;-2.468;2023-07-24T13:39:14;0.30;;;0.30;;
22449;SDS011;11392;57.390;-2.468;2023-07-24T13:41:41;1.58;;;0.32;;
22449;SDS011;11392;57.390;-2.468;2023-07-24T13:44:08;2.83;;;0.57;;
22449;SDS011;11392;57.390;-2.468;2023-07-24T13:46:36;0.77;;;0.55;;
22449;SDS011;11392;57.390;-2.468;2023-07-24T13:49:06;0.88;;;0.40;;
22449;SDS011;11392;57.390;-2.468;2023-07-24T13:51:33;1.15;;;0.40;;
22449;SDS011;11392;57.390;-2.468;2023-07-24T13:54:00;0.30;;;0.30;;
22449;SDS011;11392;57.390;-2.468;2023-07-24T13:56:29;0.30;;;0.20;;
22449;SDS011;11392;57.390;-2.468;2023-07-24T13:59:00;0.90;;;0.40;;
22449;SDS011;11392;57.390;-2.468;2023-07-24T14:01:27;0.45;;;0.30;;
22449;SDS011;11392;57.390;-2.468;2023-07-24T14:03:55;1.05;;;0.40;;
22449;SDS011;11392;57.390;-2.468;2023-07-24T14:06:22;1.70;;;0.40;;
22449;SDS011;11392;57.390;-2.468;2023-07-24T14:08:49;0.30;;;0.30;;
22449;SDS011;11392;57.390;-2.468;2023-07-24T14:11:16;0.65;;;0.60;;
22449;SDS011;11392;57.390;-2.468;2023-07-24T14:13:43;0.50;;;0.30;;
22449;SDS011;11392;57.390;-2.468;2023-07-24T14:16:12;0.20;;;0.20;;
22449;SDS011;11392;57.390;-2.468;2023-07-24T14:18:39;1.40;;;0.30;;
22449;SDS011;11392;57.390;-2.468;2023-07-24T14:21:06;0.95;;;0.20;;
22449;SDS011;11392;57.390;-2.468;2023-07-24T14:23:33;0.73;;;0.30;;
22449;SDS011;11392;57.390;-2.468;2023-07-24T14:26:00;0.30;;;0.30;;
22449;SDS011;11392;57.390;-2.468;2023-07-24T14:28:27;1.42;;;0.25;;
22449;SDS011;11392;57.390;-2.468;2023-07-24T14:30:54;0.90;;;0.40;;
22449;SDS011;11392;57.390;-2.468;2023-07-24T14:33:21;0.38;;;0.20;;
22449;SDS011;11392;57.390;-2.468;2023-07-24T14:35:48;0.20;;;0.20;;
22449;SDS011;11392;57.390;-2.468;2023-07-24T14:38:16;1.13;;;0.60;;
22449;SDS011;11392;57.390;-2.468;2023-07-24T14:40:43;0.50;;;0.32;;